Laverock, Pennsylvania
Current Conditions -  °F | °C
As of 6:35 PM on Wednesday 22 Oct 2014 (Local Time) from KLOM Reporting Station
Overcast Overcast  
Wind Chill: 54°   Ceiling: 1700
Heat Index: 54°   Visibility: 7mi
Dew Point: 50°   Wind: 3mph
Humidity: 88%   Direction: 350°N
Pressure: 29.85"   Gusts: NA
Location:  40.1012°N, 75.1722°W
Report Text: KLOM 222235Z AUTO 35003KT 7SM SCT012 BKN017 OVC027 12/10 A2985 RMK AO1
Loading
Personal Weather Stations






























Interactive Weather Map
Tropical Storm Tracking
New forecast layout! Learn more

10-Day Weather Forecast

Advertisements
Track Severe Weather on mobile